sensor_id;sensor_type;location;lat;lon;timestamp;P1;durP1;ratioP1;P2;durP2;ratioP2
40489;SDS011;26196;52.302;10.572;2022-10-16T00:02:56;0.40;;;0.20;;
40489;SDS011;26196;52.302;10.572;2022-10-16T00:06:57;0.25;;;0.20;;
40489;SDS011;26196;52.302;10.572;2022-10-16T00:11:04;0.77;;;0.57;;
40489;SDS011;26196;52.302;10.572;2022-10-16T00:15:10;0.77;;;0.40;;
40489;SDS011;26196;52.302;10.572;2022-10-16T00:19:10;0.85;;;0.40;;
40489;SDS011;26196;52.302;10.572;2022-10-16T00:23:12;0.60;;;0.40;;
40489;SDS011;26196;52.302;10.572;2022-10-16T00:27:12;1.52;;;0.60;;
40489;SDS011;26196;52.302;10.572;2022-10-16T00:31:13;0.50;;;0.25;;
40489;SDS011;26196;52.302;10.572;2022-10-16T00:35:14;0.50;;;0.38;;
40489;SDS011;26196;52.302;10.572;2022-10-16T00:39:15;0.95;;;0.30;;
40489;SDS011;26196;52.302;10.572;2022-10-16T00:47:40;0.73;;;0.32;;
40489;SDS011;26196;52.302;10.572;2022-10-16T00:51:45;0.47;;;0.47;;
40489;SDS011;26196;52.302;10.572;2022-10-16T00:55:48;0.75;;;0.35;;
40489;SDS011;26196;52.302;10.572;2022-10-16T00:59:48;0.43;;;0.38;;
40489;SDS011;26196;52.302;10.572;2022-10-16T01:03:49;2.47;;;0.40;;
40489;SDS011;26196;52.302;10.572;2022-10-16T01:20:26;0.82;;;0.40;;
40489;SDS011;26196;52.302;10.572;2022-10-16T01:24:31;0.50;;;0.25;;
40489;SDS011;26196;52.302;10.572;2022-10-16T01:33:20;0.55;;;0.45;;
40489;SDS011;26196;52.302;10.572;2022-10-16T01:37:31;0.28;;;0.20;;
40489;SDS011;26196;52.302;10.572;2022-10-16T01:41:38;0.47;;;0.30;;
40489;SDS011;26196;52.302;10.572;2022-10-16T01:45:44;0.73;;;0.50;;
40489;SDS011;26196;52.302;10.572;2022-10-16T01:49:45;1.08;;;0.30;;
40489;SDS011;26196;52.302;10.572;2022-10-16T01:53:48;0.73;;;0.40;;
40489;SDS011;26196;52.302;10.572;2022-10-16T01:57:53;0.73;;;0.40;;
40489;SDS011;26196;52.302;10.572;2022-10-16T02:01:56;0.60;;;0.30;;
40489;SDS011;26196;52.302;10.572;2022-10-16T02:06:00;0.77;;;0.40;;
40489;SDS011;26196;52.302;10.572;2022-10-16T02:10:01;0.43;;;0.20;;
40489;SDS011;26196;52.302;10.572;2022-10-16T02:14:03;0.25;;;0.20;;
40489;SDS011;26196;52.302;10.572;2022-10-16T02:18:05;0.28;;;0.17;;
40489;SDS011;26196;52.302;10.572;2022-10-16T02:22:07;0.65;;;0.47;;
40489;SDS011;26196;52.302;10.572;2022-10-16T02:26:13;0.47;;;0.20;;
40489;SDS011;26196;52.302;10.572;2022-10-16T02:34:23;0.40;;;0.30;;
40489;SDS011;26196;52.302;10.572;2022-10-16T02:38:26;0.28;;;0.20;;
40489;SDS011;26196;52.302;10.572;2022-10-16T02:42:31;0.90;;;0.43;;
40489;SDS011;26196;52.302;10.572;2022-10-16T02:46:33;1.23;;;0.43;;
40489;SDS011;26196;52.302;10.572;2022-10-16T02:50:34;1.10;;;0.30;;
40489;SDS011;26196;52.302;10.572;2022-10-16T02:54:34;0.95;;;0.50;;
40489;SDS011;26196;52.302;10.572;2022-10-16T02:58:35;0.60;;;0.40;;
40489;SDS011;26196;52.302;10.572;2022-10-16T03:02:35;1.45;;;0.45;;
40489;SDS011;26196;52.302;10.572;2022-10-16T03:06:35;1.45;;;0.60;;
40489;SDS011;26196;52.302;10.572;2022-10-16T03:10:36;0.35;;;0.25;;
40489;SDS011;26196;52.302;10.572;2022-10-16T03:14:36;0.82;;;0.32;;
40489;SDS011;26196;52.302;10.572;2022-10-16T03:18:37;0.82;;;0.40;;
40489;SDS011;26196;52.302;10.572;2022-10-16T03:22:37;0.73;;;0.40;;
40489;SDS011;26196;52.302;10.572;2022-10-16T03:26:38;0.73;;;0.45;;
40489;SDS011;26196;52.302;10.572;2022-10-16T03:30:38;0.35;;;0.30;;
40489;SDS011;26196;52.302;10.572;2022-10-16T03:34:39;1.15;;;0.40;;
40489;SDS011;26196;52.302;10.572;2022-10-16T03:38:40;0.60;;;0.40;;
40489;SDS011;26196;52.302;10.572;2022-10-16T03:42:41;0.43;;;0.30;;
40489;SDS011;26196;52.302;10.572;2022-10-16T03:46:43;0.60;;;0.50;;
40489;SDS011;26196;52.302;10.572;2022-10-16T03:50:43;1.35;;;0.40;;
40489;SDS011;26196;52.302;10.572;2022-10-16T03:54:44;0.52;;;0.50;;
40489;SDS011;26196;52.302;10.572;2022-10-16T03:58:44;1.00;;;0.40;;
40489;SDS011;26196;52.302;10.572;2022-10-16T04:02:44;1.50;;;0.73;;
40489;SDS011;26196;52.302;10.572;2022-10-16T04:06:45;1.48;;;0.50;;
40489;SDS011;26196;52.302;10.572;2022-10-16T04:10:45;0.70;;;0.32;;
40489;SDS011;26196;52.302;10.572;2022-10-16T04:14:46;5.20;;;1.50;;
40489;SDS011;26196;52.302;10.572;2022-10-16T04:18:46;0.38;;;0.30;;
40489;SDS011;26196;52.302;10.572;2022-10-16T04:22:47;0.57;;;0.30;;
40489;SDS011;26196;52.302;10.572;2022-10-16T04:26:47;0.98;;;0.38;;
40489;SDS011;26196;52.302;10.572;2022-10-16T04:30:48;0.57;;;0.30;;
40489;SDS011;26196;52.302;10.572;2022-10-16T04:34:48;0.55;;;0.40;;
40489;SDS011;26196;52.302;10.572;2022-10-16T04:38:48;2.38;;;0.70;;
40489;SDS011;26196;52.302;10.572;2022-10-16T04:42:49;1.95;;;0.82;;
40489;SDS011;26196;52.302;10.572;2022-10-16T04:46:50;0.85;;;0.40;;
40489;SDS011;26196;52.302;10.572;2022-10-16T04:50:51;0.28;;;0.22;;
40489;SDS011;26196;52.302;10.572;2022-10-16T04:54:51;0.77;;;0.40;;
40489;SDS011;26196;52.302;10.572;2022-10-16T04:58:52;0.52;;;0.35;;
40489;SDS011;26196;52.302;10.572;2022-10-16T05:02:52;0.45;;;0.40;;
40489;SDS011;26196;52.302;10.572;2022-10-16T05:06:53;0.40;;;0.30;;
40489;SDS011;26196;52.302;10.572;2022-10-16T05:10:53;1.75;;;0.40;;
40489;SDS011;26196;52.302;10.572;2022-10-16T05:14:54;0.38;;;0.22;;
40489;SDS011;26196;52.302;10.572;2022-10-16T05:18:58;0.38;;;0.38;;
40489;SDS011;26196;52.302;10.572;2022-10-16T05:22:59;0.50;;;0.30;;
40489;SDS011;26196;52.302;10.572;2022-10-16T05:26:59;0.38;;;0.30;;
40489;SDS011;26196;52.302;10.572;2022-10-16T05:31:03;1.08;;;0.68;;
40489;SDS011;26196;52.302;10.572;2022-10-16T05:35:08;0.60;;;0.30;;
40489;SDS011;26196;52.302;10.572;2022-10-16T05:39:08;0.30;;;0.20;;
40489;SDS011;26196;52.302;10.572;2022-10-16T05:43:08;0.40;;;0.20;;
40489;SDS011;26196;52.302;10.572;2022-10-16T05:47:09;0.40;;;0.20;;
40489;SDS011;26196;52.302;10.572;2022-10-16T05:51:11;0.25;;;0.20;;
40489;SDS011;26196;52.302;10.572;2022-10-16T05:55:13;1.77;;;0.40;;
40489;SDS011;26196;52.302;10.572;2022-10-16T05:59:13;0.85;;;0.22;;
40489;SDS011;26196;52.302;10.572;2022-10-16T06:03:14;0.35;;;0.22;;
40489;SDS011;26196;52.302;10.572;2022-10-16T06:07:14;0.50;;;0.25;;
40489;SDS011;26196;52.302;10.572;2022-10-16T06:11:16;0.38;;;0.20;;
40489;SDS011;26196;52.302;10.572;2022-10-16T06:15:18;0.30;;;0.20;;
40489;SDS011;26196;52.302;10.572;2022-10-16T06:19:19;0.20;;;0.20;;
40489;SDS011;26196;52.302;10.572;2022-10-16T06:23:19;0.63;;;0.30;;
40489;SDS011;26196;52.302;10.572;2022-10-16T06:27:20;2.38;;;0.30;;
40489;SDS011;26196;52.302;10.572;2022-10-16T06:31:20;0.63;;;0.35;;
40489;SDS011;26196;52.302;10.572;2022-10-16T06:35:21;0.22;;;0.20;;
40489;SDS011;26196;52.302;10.572;2022-10-16T06:39:22;0.30;;;0.20;;
40489;SDS011;26196;52.302;10.572;2022-10-16T06:43:23;0.45;;;0.40;;
40489;SDS011;26196;52.302;10.572;2022-10-16T06:47:23;0.40;;;0.40;;
40489;SDS011;26196;52.302;10.572;2022-10-16T06:51:24;0.93;;;0.30;;
40489;SDS011;26196;52.302;10.572;2022-10-16T06:55:25;1.58;;;0.30;;
40489;SDS011;26196;52.302;10.572;2022-10-16T06:59:25;1.67;;;0.32;;
40489;SDS011;26196;52.302;10.572;2022-10-16T07:03:26;1.45;;;0.30;;
40489;SDS011;26196;52.302;10.572;2022-10-16T07:07:26;0.68;;;0.68;;
40489;SDS011;26196;52.302;10.572;2022-10-16T07:11:27;0.35;;;0.35;;
40489;SDS011;26196;52.302;10.572;2022-10-16T07:15:27;1.85;;;0.30;;
40489;SDS011;26196;52.302;10.572;2022-10-16T07:19:28;0.50;;;0.40;;
40489;SDS011;26196;52.302;10.572;2022-10-16T07:23:28;0.85;;;0.40;;
40489;SDS011;26196;52.302;10.572;2022-10-16T07:27:29;0.93;;;0.40;;
40489;SDS011;26196;52.302;10.572;2022-10-16T07:31:30;0.85;;;0.60;;
40489;SDS011;26196;52.302;10.572;2022-10-16T07:35:31;1.20;;;0.50;;
40489;SDS011;26196;52.302;10.572;2022-10-16T07:39:32;1.25;;;0.52;;
40489;SDS011;26196;52.302;10.572;2022-10-16T07:43:33;0.60;;;0.30;;
40489;SDS011;26196;52.302;10.572;2022-10-16T07:47:34;0.50;;;0.30;;
40489;SDS011;26196;52.302;10.572;2022-10-16T07:51:34;1.02;;;0.32;;
40489;SDS011;26196;52.302;10.572;2022-10-16T07:55:35;1.50;;;0.40;;
40489;SDS011;26196;52.302;10.572;2022-10-16T07:59:35;0.88;;;0.35;;
40489;SDS011;26196;52.302;10.572;2022-10-16T08:03:36;0.93;;;0.65;;
40489;SDS011;26196;52.302;10.572;2022-10-16T08:07:36;2.05;;;0.95;;
40489;SDS011;26196;52.302;10.572;2022-10-16T08:11:37;1.05;;;0.40;;
40489;SDS011;26196;52.302;10.572;2022-10-16T08:15:37;1.33;;;0.35;;
40489;SDS011;26196;52.302;10.572;2022-10-16T08:19:38;0.73;;;0.52;;
40489;SDS011;26196;52.302;10.572;2022-10-16T08:23:38;1.17;;;0.38;;
40489;SDS011;26196;52.302;10.572;2022-10-16T08:27:39;0.98;;;0.38;;
40489;SDS011;26196;52.302;10.572;2022-10-16T08:31:39;2.00;;;0.40;;
40489;SDS011;26196;52.302;10.572;2022-10-16T08:35:40;2.00;;;1.02;;
40489;SDS011;26196;52.302;10.572;2022-10-16T08:39:40;0.88;;;0.43;;
40489;SDS011;26196;52.302;10.572;2022-10-16T08:52:32;0.68;;;0.40;;
40489;SDS011;26196;52.302;10.572;2022-10-16T08:56:36;3.20;;;0.52;;
40489;SDS011;26196;52.302;10.572;2022-10-16T09:00:36;1.48;;;0.57;;
40489;SDS011;26196;52.302;10.572;2022-10-16T09:04:47;0.88;;;0.30;;
40489;SDS011;26196;52.302;10.572;2022-10-16T09:17:37;1.45;;;0.40;;
40489;SDS011;26196;52.302;10.572;2022-10-16T09:21:40;1.75;;;0.40;;
40489;SDS011;26196;52.302;10.572;2022-10-16T09:25:44;0.88;;;0.52;;
40489;SDS011;26196;52.302;10.572;2022-10-16T09:29:47;2.00;;;0.57;;
40489;SDS011;26196;52.302;10.572;2022-10-16T09:33:50;2.40;;;0.52;;
40489;SDS011;26196;52.302;10.572;2022-10-16T09:37:55;1.25;;;0.52;;
40489;SDS011;26196;52.302;10.572;2022-10-16T09:41:56;1.75;;;0.65;;
40489;SDS011;26196;52.302;10.572;2022-10-16T09:46:04;0.80;;;0.40;;
40489;SDS011;26196;52.302;10.572;2022-10-16T09:50:19;1.85;;;0.40;;
40489;SDS011;26196;52.302;10.572;2022-10-16T09:54:23;0.67;;;0.30;;
40489;SDS011;26196;52.302;10.572;2022-10-16T09:58:23;0.77;;;0.30;;
40489;SDS011;26196;52.302;10.572;2022-10-16T10:02:34;1.65;;;0.40;;
40489;SDS011;26196;52.302;10.572;2022-10-16T10:06:56;1.30;;;0.43;;
40489;SDS011;26196;52.302;10.572;2022-10-16T10:10:57;0.38;;;0.20;;
40489;SDS011;26196;52.302;10.572;2022-10-16T10:15:03;1.35;;;0.30;;
40489;SDS011;26196;52.302;10.572;2022-10-16T10:19:12;0.95;;;0.40;;
40489;SDS011;26196;52.302;10.572;2022-10-16T10:23:24;0.25;;;0.20;;
40489;SDS011;26196;52.302;10.572;2022-10-16T10:27:30;0.20;;;0.20;;
40489;SDS011;26196;52.302;10.572;2022-10-16T10:31:44;0.50;;;0.20;;
40489;SDS011;26196;52.302;10.572;2022-10-16T10:52:39;1.10;;;0.40;;
40489;SDS011;26196;52.302;10.572;2022-10-16T10:56:51;1.88;;;0.63;;
40489;SDS011;26196;52.302;10.572;2022-10-16T11:09:53;1.50;;;0.40;;
40489;SDS011;26196;52.302;10.572;2022-10-16T11:18:15;0.30;;;0.20;;
40489;SDS011;26196;52.302;10.572;2022-10-16T11:22:27;0.77;;;0.40;;
40489;SDS011;26196;52.302;10.572;2022-10-16T11:26:35;1.42;;;0.55;;
40489;SDS011;26196;52.302;10.572;2022-10-16T11:30:53;0.57;;;0.20;;
40489;SDS011;26196;52.302;10.572;2022-10-16T11:35:00;2.42;;;0.30;;
40489;SDS011;26196;52.302;10.572;2022-10-16T11:43:37;1.52;;;0.38;;
40489;SDS011;26196;52.302;10.572;2022-10-16T11:47:45;0.80;;;0.20;;
40489;SDS011;26196;52.302;10.572;2022-10-16T11:51:55;1.10;;;0.55;;
40489;SDS011;26196;52.302;10.572;2022-10-16T11:56:04;0.50;;;0.10;;
40489;SDS011;26196;52.302;10.572;2022-10-16T12:00:08;1.52;;;0.35;;
40489;SDS011;26196;52.302;10.572;2022-10-16T12:08:34;0.43;;;0.10;;
40489;SDS011;26196;52.302;10.572;2022-10-16T12:16:55;0.32;;;0.15;;
40489;SDS011;26196;52.302;10.572;2022-10-16T12:21:00;2.90;;;0.22;;
40489;SDS011;26196;52.302;10.572;2022-10-16T12:25:17;0.80;;;0.28;;
40489;SDS011;26196;52.302;10.572;2022-10-16T12:29:46;0.80;;;0.20;;
40489;SDS011;26196;52.302;10.572;2022-10-16T12:46:35;1.48;;;0.30;;
40489;SDS011;26196;52.302;10.572;2022-10-16T12:50:39;0.70;;;0.20;;
40489;SDS011;26196;52.302;10.572;2022-10-16T12:54:41;0.32;;;0.20;;
40489;SDS011;26196;52.302;10.572;2022-10-16T13:24:00;0.43;;;0.22;;
40489;SDS011;26196;52.302;10.572;2022-10-16T13:28:03;0.50;;;0.20;;
40489;SDS011;26196;52.302;10.572;2022-10-16T13:32:07;1.02;;;0.10;;
40489;SDS011;26196;52.302;10.572;2022-10-16T13:36:21;0.22;;;0.13;;
40489;SDS011;26196;52.302;10.572;2022-10-16T13:40:27;1.20;;;0.20;;
40489;SDS011;26196;52.302;10.572;2022-10-16T13:44:27;0.38;;;0.10;;
40489;SDS011;26196;52.302;10.572;2022-10-16T13:48:35;0.60;;;0.38;;
40489;SDS011;26196;52.302;10.572;2022-10-16T13:52:35;0.10;;;0.10;;
40489;SDS011;26196;52.302;10.572;2022-10-16T13:56:38;0.20;;;0.20;;
40489;SDS011;26196;52.302;10.572;2022-10-16T14:00:41;2.50;;;0.30;;
40489;SDS011;26196;52.302;10.572;2022-10-16T14:04:56;1.75;;;0.40;;
40489;SDS011;26196;52.302;10.572;2022-10-16T14:09:07;0.57;;;0.30;;
40489;SDS011;26196;52.302;10.572;2022-10-16T14:17:59;3.70;;;0.22;;
40489;SDS011;26196;52.302;10.572;2022-10-16T14:22:20;0.70;;;0.30;;
40489;SDS011;26196;52.302;10.572;2022-10-16T14:26:29;0.95;;;0.20;;
40489;SDS011;26196;52.302;10.572;2022-10-16T14:31:00;1.50;;;0.20;;
40489;SDS011;26196;52.302;10.572;2022-10-16T14:35:03;1.80;;;0.43;;
40489;SDS011;26196;52.302;10.572;2022-10-16T14:39:17;1.17;;;0.75;;
40489;SDS011;26196;52.302;10.572;2022-10-16T14:43:30;0.77;;;0.30;;
40489;SDS011;26196;52.302;10.572;2022-10-16T14:47:34;2.78;;;0.52;;
40489;SDS011;26196;52.302;10.572;2022-10-16T14:51:38;1.90;;;0.32;;
40489;SDS011;26196;52.302;10.572;2022-10-16T14:55:42;3.53;;;0.55;;
40489;SDS011;26196;52.302;10.572;2022-10-16T14:59:43;1.30;;;0.30;;
40489;SDS011;26196;52.302;10.572;2022-10-16T15:03:45;2.65;;;0.50;;
40489;SDS011;26196;52.302;10.572;2022-10-16T15:07:46;2.75;;;0.60;;
40489;SDS011;26196;52.302;10.572;2022-10-16T15:11:46;1.65;;;0.32;;
40489;SDS011;26196;52.302;10.572;2022-10-16T15:15:47;9.00;;;1.38;;
40489;SDS011;26196;52.302;10.572;2022-10-16T15:19:49;2.33;;;0.60;;
40489;SDS011;26196;52.302;10.572;2022-10-16T15:23:51;4.30;;;0.50;;
40489;SDS011;26196;52.302;10.572;2022-10-16T15:27:51;5.90;;;0.80;;
40489;SDS011;26196;52.302;10.572;2022-10-16T15:31:52;5.72;;;0.80;;
40489;SDS011;26196;52.302;10.572;2022-10-16T15:35:53;1.25;;;0.43;;
40489;SDS011;26196;52.302;10.572;2022-10-16T15:39:54;3.90;;;0.65;;
40489;SDS011;26196;52.302;10.572;2022-10-16T15:43:55;7.43;;;1.10;;
40489;SDS011;26196;52.302;10.572;2022-10-16T15:47:56;5.57;;;0.88;;
40489;SDS011;26196;52.302;10.572;2022-10-16T15:51:56;5.97;;;0.60;;
40489;SDS011;26196;52.302;10.572;2022-10-16T15:55:57;4.30;;;0.50;;
40489;SDS011;26196;52.302;10.572;2022-10-16T15:59:58;3.47;;;1.08;;
40489;SDS011;26196;52.302;10.572;2022-10-16T16:03:59;4.82;;;0.63;;
40489;SDS011;26196;52.302;10.572;2022-10-16T16:07:59;2.92;;;0.70;;
40489;SDS011;26196;52.302;10.572;2022-10-16T16:12:00;2.28;;;0.50;;
40489;SDS011;26196;52.302;10.572;2022-10-16T16:16:01;4.75;;;0.90;;
40489;SDS011;26196;52.302;10.572;2022-10-16T16:20:05;7.70;;;1.30;;
40489;SDS011;26196;52.302;10.572;2022-10-16T16:24:07;15.77;;;2.78;;
40489;SDS011;26196;52.302;10.572;2022-10-16T16:28:08;1.20;;;0.43;;
40489;SDS011;26196;52.302;10.572;2022-10-16T16:32:10;2.10;;;0.75;;
40489;SDS011;26196;52.302;10.572;2022-10-16T16:36:11;3.25;;;0.73;;
40489;SDS011;26196;52.302;10.572;2022-10-16T16:40:11;1.60;;;0.43;;
40489;SDS011;26196;52.302;10.572;2022-10-16T16:44:12;4.55;;;0.65;;
40489;SDS011;26196;52.302;10.572;2022-10-16T16:48:14;3.35;;;1.02;;
40489;SDS011;26196;52.302;10.572;2022-10-16T16:52:15;2.13;;;1.00;;
40489;SDS011;26196;52.302;10.572;2022-10-16T16:56:17;6.30;;;1.70;;
40489;SDS011;26196;52.302;10.572;2022-10-16T17:00:19;5.95;;;0.93;;
40489;SDS011;26196;52.302;10.572;2022-10-16T17:04:19;5.18;;;0.60;;
40489;SDS011;26196;52.302;10.572;2022-10-16T17:08:20;8.77;;;1.00;;
40489;SDS011;26196;52.302;10.572;2022-10-16T17:12:21;6.53;;;2.38;;
40489;SDS011;26196;52.302;10.572;2022-10-16T17:16:22;3.30;;;0.80;;
40489;SDS011;26196;52.302;10.572;2022-10-16T17:20:31;1.45;;;0.63;;
40489;SDS011;26196;52.302;10.572;2022-10-16T17:24:31;2.05;;;0.85;;
40489;SDS011;26196;52.302;10.572;2022-10-16T17:28:32;5.05;;;0.80;;
40489;SDS011;26196;52.302;10.572;2022-10-16T17:32:33;4.15;;;1.00;;
40489;SDS011;26196;52.302;10.572;2022-10-16T17:36:35;8.57;;;1.13;;
40489;SDS011;26196;52.302;10.572;2022-10-16T17:40:37;11.23;;;1.80;;
40489;SDS011;26196;52.302;10.572;2022-10-16T17:44:38;12.18;;;2.10;;
40489;SDS011;26196;52.302;10.572;2022-10-16T17:48:42;6.90;;;2.30;;
40489;SDS011;26196;52.302;10.572;2022-10-16T17:52:44;10.18;;;2.55;;
40489;SDS011;26196;52.302;10.572;2022-10-16T17:56:45;4.93;;;2.63;;
40489;SDS011;26196;52.302;10.572;2022-10-16T18:00:47;9.93;;;3.35;;
40489;SDS011;26196;52.302;10.572;2022-10-16T18:04:48;7.20;;;3.55;;
40489;SDS011;26196;52.302;10.572;2022-10-16T18:08:52;5.13;;;3.20;;
40489;SDS011;26196;52.302;10.572;2022-10-16T18:12:54;4.30;;;3.17;;
40489;SDS011;26196;52.302;10.572;2022-10-16T18:16:55;8.57;;;2.50;;
40489;SDS011;26196;52.302;10.572;2022-10-16T18:21:00;4.43;;;2.05;;
40489;SDS011;26196;52.302;10.572;2022-10-16T18:25:03;3.10;;;2.10;;
40489;SDS011;26196;52.302;10.572;2022-10-16T18:29:05;7.72;;;2.95;;
40489;SDS011;26196;52.302;10.572;2022-10-16T18:33:06;6.53;;;2.90;;
40489;SDS011;26196;52.302;10.572;2022-10-16T18:37:06;6.95;;;2.63;;
40489;SDS011;26196;52.302;10.572;2022-10-16T18:41:07;7.97;;;3.05;;
40489;SDS011;26196;52.302;10.572;2022-10-16T18:45:08;3.85;;;2.40;;
40489;SDS011;26196;52.302;10.572;2022-10-16T18:49:08;9.38;;;3.10;;
40489;SDS011;26196;52.302;10.572;2022-10-16T18:53:09;9.52;;;3.00;;
40489;SDS011;26196;52.302;10.572;2022-10-16T18:57:09;7.45;;;2.22;;
40489;SDS011;26196;52.302;10.572;2022-10-16T19:01:11;6.65;;;2.33;;
40489;SDS011;26196;52.302;10.572;2022-10-16T19:05:13;4.85;;;1.58;;
40489;SDS011;26196;52.302;10.572;2022-10-16T19:09:15;5.32;;;2.38;;
40489;SDS011;26196;52.302;10.572;2022-10-16T19:13:18;6.22;;;2.00;;
40489;SDS011;26196;52.302;10.572;2022-10-16T19:17:19;4.25;;;1.95;;
40489;SDS011;26196;52.302;10.572;2022-10-16T19:21:19;10.95;;;2.13;;
40489;SDS011;26196;52.302;10.572;2022-10-16T19:25:21;4.20;;;2.10;;
40489;SDS011;26196;52.302;10.572;2022-10-16T19:29:22;3.53;;;1.70;;
40489;SDS011;26196;52.302;10.572;2022-10-16T19:33:23;6.38;;;1.92;;
40489;SDS011;26196;52.302;10.572;2022-10-16T19:37:23;3.08;;;1.70;;
40489;SDS011;26196;52.302;10.572;2022-10-16T19:41:27;3.13;;;1.50;;
40489;SDS011;26196;52.302;10.572;2022-10-16T19:45:28;6.80;;;1.75;;
40489;SDS011;26196;52.302;10.572;2022-10-16T19:49:28;4.13;;;1.25;;
40489;SDS011;26196;52.302;10.572;2022-10-16T19:53:29;1.95;;;1.33;;
40489;SDS011;26196;52.302;10.572;2022-10-16T19:57:34;2.53;;;1.40;;
40489;SDS011;26196;52.302;10.572;2022-10-16T20:01:35;3.17;;;1.42;;
40489;SDS011;26196;52.302;10.572;2022-10-16T20:05:36;2.55;;;1.23;;
40489;SDS011;26196;52.302;10.572;2022-10-16T20:09:36;3.70;;;1.45;;
40489;SDS011;26196;52.302;10.572;2022-10-16T20:13:37;1.95;;;1.33;;
40489;SDS011;26196;52.302;10.572;2022-10-16T20:17:38;2.75;;;1.40;;
40489;SDS011;26196;52.302;10.572;2022-10-16T20:21:38;2.28;;;1.40;;
40489;SDS011;26196;52.302;10.572;2022-10-16T20:25:40;1.95;;;1.67;;
40489;SDS011;26196;52.302;10.572;2022-10-16T20:29:41;2.92;;;1.80;;
40489;SDS011;26196;52.302;10.572;2022-10-16T20:33:42;2.90;;;1.58;;
40489;SDS011;26196;52.302;10.572;2022-10-16T20:37:43;3.00;;;1.20;;
40489;SDS011;26196;52.302;10.572;2022-10-16T20:41:47;5.03;;;1.52;;
40489;SDS011;26196;52.302;10.572;2022-10-16T20:45:57;4.05;;;1.48;;
40489;SDS011;26196;52.302;10.572;2022-10-16T20:49:59;4.68;;;1.60;;
40489;SDS011;26196;52.302;10.572;2022-10-16T20:54:00;1.58;;;1.10;;
40489;SDS011;26196;52.302;10.572;2022-10-16T20:58:03;2.40;;;1.48;;
40489;SDS011;26196;52.302;10.572;2022-10-16T21:02:04;1.52;;;1.15;;
40489;SDS011;26196;52.302;10.572;2022-10-16T21:06:07;2.22;;;1.17;;
40489;SDS011;26196;52.302;10.572;2022-10-16T21:10:09;1.48;;;0.90;;
40489;SDS011;26196;52.302;10.572;2022-10-16T21:14:09;2.85;;;1.10;;
40489;SDS011;26196;52.302;10.572;2022-10-16T21:18:10;2.88;;;1.23;;
40489;SDS011;26196;52.302;10.572;2022-10-16T21:22:11;2.28;;;1.38;;
40489;SDS011;26196;52.302;10.572;2022-10-16T21:26:12;1.10;;;1.00;;
40489;SDS011;26196;52.302;10.572;2022-10-16T21:30:12;4.22;;;1.00;;
40489;SDS011;26196;52.302;10.572;2022-10-16T21:34:13;2.08;;;0.90;;
40489;SDS011;26196;52.302;10.572;2022-10-16T21:38:13;1.90;;;1.20;;
40489;SDS011;26196;52.302;10.572;2022-10-16T21:42:14;1.42;;;0.82;;
40489;SDS011;26196;52.302;10.572;2022-10-16T21:46:15;1.73;;;1.00;;
40489;SDS011;26196;52.302;10.572;2022-10-16T21:50:17;1.27;;;0.95;;
40489;SDS011;26196;52.302;10.572;2022-10-16T21:54:18;2.10;;;1.13;;
40489;SDS011;26196;52.302;10.572;2022-10-16T21:58:20;1.00;;;0.82;;
40489;SDS011;26196;52.302;10.572;2022-10-16T22:02:21;2.42;;;1.15;;
40489;SDS011;26196;52.302;10.572;2022-10-16T22:06:22;1.73;;;1.08;;
40489;SDS011;26196;52.302;10.572;2022-10-16T22:10:26;1.80;;;0.88;;
40489;SDS011;26196;52.302;10.572;2022-10-16T22:14:26;2.75;;;1.08;;
40489;SDS011;26196;52.302;10.572;2022-10-16T22:18:27;1.88;;;1.10;;
40489;SDS011;26196;52.302;10.572;2022-10-16T22:22:28;2.47;;;1.10;;
40489;SDS011;26196;52.302;10.572;2022-10-16T22:26:28;1.60;;;0.95;;
40489;SDS011;26196;52.302;10.572;2022-10-16T22:30:28;1.63;;;0.75;;
40489;SDS011;26196;52.302;10.572;2022-10-16T22:34:29;1.05;;;0.70;;
40489;SDS011;26196;52.302;10.572;2022-10-16T22:38:30;1.73;;;0.90;;
40489;SDS011;26196;52.302;10.572;2022-10-16T22:42:32;1.88;;;1.17;;
40489;SDS011;26196;52.302;10.572;2022-10-16T22:46:32;2.78;;;0.95;;
40489;SDS011;26196;52.302;10.572;2022-10-16T22:50:32;1.33;;;0.68;;
40489;SDS011;26196;52.302;10.572;2022-10-16T22:54:33;1.48;;;0.95;;
40489;SDS011;26196;52.302;10.572;2022-10-16T22:58:33;1.67;;;0.77;;
40489;SDS011;26196;52.302;10.572;2022-10-16T23:02:34;1.40;;;0.73;;
40489;SDS011;26196;52.302;10.572;2022-10-16T23:06:34;1.10;;;0.60;;
40489;SDS011;26196;52.302;10.572;2022-10-16T23:10:38;2.05;;;1.30;;
40489;SDS011;26196;52.302;10.572;2022-10-16T23:14:43;1.52;;;1.05;;
40489;SDS011;26196;52.302;10.572;2022-10-16T23:18:44;2.40;;;0.90;;
40489;SDS011;26196;52.302;10.572;2022-10-16T23:22:45;1.27;;;0.75;;
40489;SDS011;26196;52.302;10.572;2022-10-16T23:26:45;1.00;;;0.80;;
40489;SDS011;26196;52.302;10.572;2022-10-16T23:30:46;1.13;;;0.60;;
40489;SDS011;26196;52.302;10.572;2022-10-16T23:34:46;0.88;;;0.60;;
40489;SDS011;26196;52.302;10.572;2022-10-16T23:38:47;1.35;;;0.90;;
40489;SDS011;26196;52.302;10.572;2022-10-16T23:42:47;1.40;;;0.63;;
40489;SDS011;26196;52.302;10.572;2022-10-16T23:46:48;1.52;;;0.80;;
40489;SDS011;26196;52.302;10.572;2022-10-16T23:50:48;0.98;;;0.60;;
40489;SDS011;26196;52.302;10.572;2022-10-16T23:54:49;1.95;;;0.70;;
40489;SDS011;26196;52.302;10.572;2022-10-16T23:58:49;3.35;;;0.70;;
